LOT6PK EPKT-EPWA
Flight info
| Callsign | LOT6PK |
|---|---|
| Flight time | 0h 28m |
| Altitude | 23000 |
| Route | KURON T709 KOTEK M866 LOGDA |
| Aircraft | A320/M-SDE3FGHIRWY/LB1 |
Departure
| Time | 2026-05-06 19:21 |
|---|---|
| Airport | Katowice Wojciech Korfanty International Airport (EPKT) |
Arrival
| Time | 2026-05-06 19:50 |
|---|---|
| Airport | Warsaw Chopin Airport (EPWA) |
| Time | Latitude | Longitude | Altitude | Speed | Heading |
|---|---|---|---|---|---|
| 2026-05-06 18:50 | 50.47182 | 19.07149 | 1000 ft | 0 kts | 180° |
| 2026-05-06 18:50 | 50.47180 | 19.07149 | 999 ft | 0 kts | 180° |
| 2026-05-06 19:08 | 50.47184 | 19.07149 | 998 ft | 3 kts | 180° |
| 2026-05-06 19:08 | 50.47209 | 19.07149 | 998 ft | 2 kts | 180° |
| 2026-05-06 19:09 | 50.47230 | 19.07145 | 999 ft | 4 kts | 125° |
| 2026-05-06 19:09 | 50.47235 | 19.07109 | 998 ft | 4 kts | 90° |
| 2026-05-06 19:09 | 50.47235 | 19.07091 | 998 ft | 0 kts | 90° |
| 2026-05-06 19:12 | 50.47235 | 19.07107 | 998 ft | 5 kts | 90° |
| 2026-05-06 19:12 | 50.47235 | 19.07152 | 998 ft | 3 kts | 90° |
| 2026-05-06 19:12 | 50.47235 | 19.07200 | 998 ft | 11 kts | 90° |
| 2026-05-06 19:13 | 50.47234 | 19.07388 | 998 ft | 19 kts | 90° |
| 2026-05-06 19:13 | 50.47234 | 19.07599 | 1001 ft | 20 kts | 90° |
| 2026-05-06 19:13 | 50.47233 | 19.07822 | 1001 ft | 21 kts | 90° |
| 2026-05-06 19:13 | 50.47232 | 19.08058 | 1000 ft | 22 kts | 91° |
| 2026-05-06 19:14 | 50.47231 | 19.08305 | 1000 ft | 23 kts | 90° |
| 2026-05-06 19:14 | 50.47231 | 19.08563 | 1004 ft | 24 kts | 90° |
| 2026-05-06 19:14 | 50.47231 | 19.08833 | 1002 ft | 27 kts | 90° |
| 2026-05-06 19:14 | 50.47229 | 19.09139 | 1002 ft | 28 kts | 91° |
| 2026-05-06 19:15 | 50.47228 | 19.09449 | 998 ft | 28 kts | 90° |
| 2026-05-06 19:15 | 50.47229 | 19.09759 | 1000 ft | 28 kts | 91° |
| 2026-05-06 19:15 | 50.47254 | 19.10058 | 1001 ft | 28 kts | 58° |
| 2026-05-06 19:15 | 50.47372 | 19.10299 | 1000 ft | 24 kts | 51° |
| 2026-05-06 19:16 | 50.47403 | 19.10361 | 998 ft | 0 kts | 51° |
| 2026-05-06 19:16 | 50.47407 | 19.10368 | 998 ft | 6 kts | 51° |
| 2026-05-06 19:16 | 50.47478 | 19.10449 | 999 ft | 15 kts | 6° |
| 2026-05-06 19:16 | 50.47573 | 19.10430 | 1001 ft | 13 kts | 327° |
| 2026-05-06 19:17 | 50.47595 | 19.10325 | 999 ft | 2 kts | 271° |
| 2026-05-06 19:20 | 50.47596 | 19.10216 | 1001 ft | 38 kts | 272° |
| 2026-05-06 19:20 | 50.47589 | 19.09404 | 1000 ft | 106 kts | 271° |
| 2026-05-06 19:21 | 50.47591 | 19.07942 | 1003 ft | 159 kts | 272° |
| 2026-05-06 19:21 | 50.47647 | 19.06112 | 1418 ft | 167 kts | 269° |
| 2026-05-06 19:21 | 50.47658 | 19.04284 | 1987 ft | 168 kts | 266° |
| 2026-05-06 19:21 | 50.47648 | 19.02432 | 2365 ft | 178 kts | 264° |
| 2026-05-06 19:22 | 50.47627 | 19.00385 | 2544 ft | 196 kts | 265° |
| 2026-05-06 19:22 | 50.47608 | 18.98153 | 2733 ft | 215 kts | 265° |
| 2026-05-06 19:22 | 50.47758 | 18.95701 | 2943 ft | 237 kts | 285° |
| 2026-05-06 19:22 | 50.48745 | 18.93568 | 3369 ft | 253 kts | 323° |
| 2026-05-06 19:23 | 50.50430 | 18.92487 | 3604 ft | 275 kts | 350° |
| 2026-05-06 19:23 | 50.52364 | 18.92724 | 3974 ft | 286 kts | 20° |
| 2026-05-06 19:23 | 50.54007 | 18.94457 | 4556 ft | 289 kts | 53° |
| 2026-05-06 19:23 | 50.54897 | 18.97253 | 5339 ft | 287 kts | 82° |
| 2026-05-06 19:24 | 50.55155 | 19.00329 | 6154 ft | 290 kts | 88° |
| 2026-05-06 19:24 | 50.55384 | 19.03495 | 6970 ft | 293 kts | 88° |
| 2026-05-06 19:24 | 50.55618 | 19.06699 | 7817 ft | 296 kts | 88° |
| 2026-05-06 19:24 | 50.55856 | 19.09929 | 8664 ft | 299 kts | 88° |
| 2026-05-06 19:25 | 50.56095 | 19.13195 | 9507 ft | 302 kts | 88° |
| 2026-05-06 19:25 | 50.56337 | 19.16503 | 10179 ft | 311 kts | 87° |
| 2026-05-06 19:25 | 50.56589 | 19.20017 | 10408 ft | 335 kts | 87° |
| 2026-05-06 19:25 | 50.56860 | 19.23790 | 10621 ft | 357 kts | 86° |
| 2026-05-06 19:26 | 50.57147 | 19.27718 | 11169 ft | 366 kts | 86° |
| 2026-05-06 19:26 | 50.57442 | 19.31718 | 11855 ft | 370 kts | 86° |
| 2026-05-06 19:26 | 50.57738 | 19.35763 | 12547 ft | 375 kts | 86° |
| 2026-05-06 19:26 | 50.58035 | 19.39858 | 13239 ft | 379 kts | 86° |
| 2026-05-06 19:27 | 50.58355 | 19.43993 | 13881 ft | 384 kts | 82° |
| 2026-05-06 19:27 | 50.59229 | 19.48009 | 14455 ft | 394 kts | 63° |
| 2026-05-06 19:27 | 50.60878 | 19.51487 | 15034 ft | 400 kts | 48° |
| 2026-05-06 19:27 | 50.62772 | 19.54730 | 15636 ft | 404 kts | 47° |
| 2026-05-06 19:28 | 50.64696 | 19.57993 | 16203 ft | 408 kts | 47° |
| 2026-05-06 19:28 | 50.66641 | 19.61288 | 16665 ft | 413 kts | 47° |
| 2026-05-06 19:28 | 50.68599 | 19.64613 | 16785 ft | 414 kts | 47° |
| 2026-05-06 19:28 | 50.70560 | 19.67963 | 17213 ft | 417 kts | 47° |
| 2026-05-06 19:29 | 50.72532 | 19.71352 | 17836 ft | 421 kts | 47° |
| 2026-05-06 19:29 | 50.74519 | 19.74777 | 18369 ft | 425 kts | 47° |
| 2026-05-06 19:29 | 50.76521 | 19.78236 | 18890 ft | 428 kts | 47° |
| 2026-05-06 19:29 | 50.78540 | 19.81724 | 19415 ft | 431 kts | 47° |
| 2026-05-06 19:30 | 50.80568 | 19.85232 | 19937 ft | 435 kts | 47° |
| 2026-05-06 19:30 | 50.82616 | 19.88779 | 20460 ft | 438 kts | 47° |
| 2026-05-06 19:30 | 50.84676 | 19.92345 | 20972 ft | 441 kts | 47° |
| 2026-05-06 19:30 | 50.86749 | 19.95938 | 21467 ft | 444 kts | 48° |
| 2026-05-06 19:31 | 50.88811 | 19.99518 | 21949 ft | 446 kts | 48° |
| 2026-05-06 19:31 | 50.90910 | 20.03167 | 22437 ft | 449 kts | 48° |
| 2026-05-06 19:31 | 50.95141 | 20.10540 | 22811 ft | 457 kts | 48° |
| 2026-05-06 19:32 | 50.97290 | 20.14289 | 22807 ft | 460 kts | 48° |
| 2026-05-06 19:32 | 50.99443 | 20.18048 | 22810 ft | 460 kts | 48° |
| 2026-05-06 19:32 | 51.01598 | 20.21822 | 22816 ft | 461 kts | 48° |
| 2026-05-06 19:32 | 51.03748 | 20.25595 | 22810 ft | 461 kts | 48° |
| 2026-05-06 19:33 | 51.05897 | 20.29374 | 22807 ft | 460 kts | 48° |
| 2026-05-06 19:33 | 51.08021 | 20.33119 | 22472 ft | 452 kts | 48° |
| 2026-05-06 19:33 | 51.10120 | 20.36823 | 22166 ft | 450 kts | 48° |
| 2026-05-06 19:33 | 51.12208 | 20.40512 | 21771 ft | 447 kts | 48° |
| 2026-05-06 19:34 | 51.14277 | 20.44176 | 21380 ft | 441 kts | 49° |
| 2026-05-06 19:34 | 51.16408 | 20.47626 | 21044 ft | 433 kts | 38° |
| 2026-05-06 19:34 | 51.18896 | 20.50143 | 20905 ft | 415 kts | 26° |
| 2026-05-06 19:34 | 51.21410 | 20.52230 | 20438 ft | 401 kts | 26° |
| 2026-05-06 19:35 | 51.23832 | 20.54224 | 19774 ft | 394 kts | 26° |
| 2026-05-06 19:35 | 51.26257 | 20.56207 | 19043 ft | 389 kts | 25° |
| 2026-05-06 19:35 | 51.28653 | 20.58166 | 18333 ft | 385 kts | 26° |
| 2026-05-06 19:35 | 51.31021 | 20.60106 | 17583 ft | 381 kts | 26° |
| 2026-05-06 19:36 | 51.33374 | 20.62040 | 17059 ft | 379 kts | 26° |
| 2026-05-06 19:36 | 51.35711 | 20.63966 | 16578 ft | 376 kts | 26° |
| 2026-05-06 19:36 | 51.38028 | 20.65879 | 16154 ft | 371 kts | 26° |
| 2026-05-06 19:36 | 51.40280 | 20.67739 | 15995 ft | 355 kts | 26° |
| 2026-05-06 19:37 | 51.42438 | 20.69529 | 15566 ft | 346 kts | 26° |
| 2026-05-06 19:37 | 51.44558 | 20.71287 | 15025 ft | 341 kts | 26° |
| 2026-05-06 19:37 | 51.46656 | 20.73023 | 14453 ft | 337 kts | 26° |
| 2026-05-06 19:37 | 51.48032 | 20.74160 | 14079 ft | 335 kts | 26° |
| 2026-05-06 19:38 | 51.50785 | 20.76441 | 13288 ft | 330 kts | 26° |
| 2026-05-06 19:38 | 51.52816 | 20.78123 | 12700 ft | 329 kts | 26° |
| 2026-05-06 19:38 | 51.54840 | 20.79807 | 12380 ft | 326 kts | 26° |
| 2026-05-06 19:38 | 51.56836 | 20.81473 | 11858 ft | 322 kts | 27° |
| 2026-05-06 19:39 | 51.58817 | 20.83127 | 11254 ft | 319 kts | 27° |
| 2026-05-06 19:39 | 51.60754 | 20.84745 | 10682 ft | 316 kts | 26° |
| 2026-05-06 19:39 | 51.62696 | 20.86367 | 10105 ft | 313 kts | 26° |
| 2026-05-06 19:39 | 51.64625 | 20.87981 | 9832 ft | 311 kts | 27° |
| 2026-05-06 19:40 | 51.66550 | 20.89594 | 9716 ft | 312 kts | 27° |
| 2026-05-06 19:40 | 51.68465 | 20.91200 | 9585 ft | 306 kts | 27° |
| 2026-05-06 19:40 | 51.70317 | 20.92751 | 9447 ft | 295 kts | 26° |
| 2026-05-06 19:40 | 51.72108 | 20.94251 | 9311 ft | 285 kts | 27° |
| 2026-05-06 19:41 | 51.73840 | 20.95701 | 9181 ft | 277 kts | 26° |
| 2026-05-06 19:41 | 51.75541 | 20.97128 | 9052 ft | 275 kts | 26° |
| 2026-05-06 19:41 | 51.77225 | 20.98545 | 8746 ft | 272 kts | 27° |
| 2026-05-06 19:41 | 51.78903 | 20.99960 | 8396 ft | 271 kts | 26° |
| 2026-05-06 19:42 | 51.80587 | 21.01381 | 7905 ft | 275 kts | 27° |
| 2026-05-06 19:42 | 51.82267 | 21.02800 | 7556 ft | 269 kts | 27° |
| 2026-05-06 19:42 | 51.83909 | 21.04186 | 7399 ft | 266 kts | 26° |
| 2026-05-06 19:42 | 51.85552 | 21.05578 | 7205 ft | 266 kts | 28° |
| 2026-05-06 19:43 | 51.87031 | 21.07339 | 6873 ft | 264 kts | 46° |
| 2026-05-06 19:43 | 51.88113 | 21.09698 | 6519 ft | 261 kts | 64° |
| 2026-05-06 19:43 | 51.88957 | 21.12268 | 6291 ft | 255 kts | 64° |
| 2026-05-06 19:43 | 51.89832 | 21.14772 | 5894 ft | 258 kts | 53° |
| 2026-05-06 19:44 | 51.91219 | 21.16538 | 5537 ft | 256 kts | 19° |
| 2026-05-06 19:44 | 51.92927 | 21.16879 | 5309 ft | 242 kts | 347° |
| 2026-05-06 19:44 | 51.94454 | 21.15963 | 5092 ft | 231 kts | 328° |
| 2026-05-06 19:44 | 51.95864 | 21.14751 | 4705 ft | 228 kts | 328° |
| 2026-05-06 19:45 | 51.97241 | 21.13543 | 4356 ft | 228 kts | 327° |
| 2026-05-06 19:45 | 51.98633 | 21.12320 | 4048 ft | 227 kts | 327° |
| 2026-05-06 19:45 | 52.00023 | 21.11113 | 3763 ft | 224 kts | 327° |
| 2026-05-06 19:45 | 52.01347 | 21.09969 | 3461 ft | 206 kts | 327° |
| 2026-05-06 19:46 | 52.02580 | 21.08900 | 3194 ft | 197 kts | 327° |
| 2026-05-06 19:46 | 52.03773 | 21.07864 | 2942 ft | 192 kts | 328° |
| 2026-05-06 19:46 | 52.04945 | 21.06845 | 2698 ft | 190 kts | 328° |
| 2026-05-06 19:46 | 52.06106 | 21.05836 | 2454 ft | 188 kts | 328° |
| 2026-05-06 19:47 | 52.07258 | 21.04834 | 2206 ft | 186 kts | 328° |
| 2026-05-06 19:47 | 52.08358 | 21.03879 | 1960 ft | 171 kts | 328° |
| 2026-05-06 19:47 | 52.09349 | 21.03019 | 1755 ft | 154 kts | 328° |
| 2026-05-06 19:47 | 52.10266 | 21.02220 | 1559 ft | 146 kts | 328° |
| 2026-05-06 19:48 | 52.11153 | 21.01446 | 1361 ft | 144 kts | 328° |
| 2026-05-06 19:48 | 52.12025 | 21.00685 | 1167 ft | 141 kts | 329° |
| 2026-05-06 19:48 | 52.12599 | 21.00185 | 1047 ft | 141 kts | 330° |
| 2026-05-06 19:48 | 52.13469 | 20.99425 | 848 ft | 142 kts | 331° |
| 2026-05-06 19:49 | 52.14331 | 20.98675 | 651 ft | 139 kts | 332° |
| 2026-05-06 19:49 | 52.15458 | 20.97727 | 391 ft | 137 kts | 332° |
| 2026-05-06 19:49 | 52.16006 | 20.97247 | 341 ft | 122 kts | 329° |
| 2026-05-06 19:49 | 52.16805 | 20.96502 | 335 ft | 80 kts | 335° |
| 2026-05-06 19:50 | 52.17201 | 20.96224 | 334 ft | 40 kts | 351° |
| 2026-05-06 19:50 | 52.17364 | 20.96253 | 339 ft | 21 kts | 16° |
| 2026-05-06 19:50 | 52.17391 | 20.96288 | 337 ft | 0 kts | 44° |
| 2026-05-06 19:51 | 52.17394 | 20.96294 | 337 ft | 5 kts | 45° |
| 2026-05-06 19:51 | 52.17436 | 20.96404 | 338 ft | 11 kts | 61° |
| 2026-05-06 19:51 | 52.17455 | 20.96462 | 337 ft | 0 kts | 61° |
| 2026-05-06 19:52 | 52.17467 | 20.96528 | 334 ft | 17 kts | 91° |
| 2026-05-06 19:52 | 52.17391 | 20.96634 | 337 ft | 14 kts | 152° |
| 2026-05-06 19:52 | 52.17311 | 20.96704 | 337 ft | 12 kts | 152° |
| 2026-05-06 19:52 | 52.17240 | 20.96767 | 337 ft | 11 kts | 151° |
| 2026-05-06 19:53 | 52.17179 | 20.96821 | 334 ft | 9 kts | 152° |
| 2026-05-06 19:53 | 52.17126 | 20.96871 | 339 ft | 7 kts | 137° |
| 2026-05-06 19:53 | 52.17127 | 20.96942 | 339 ft | 6 kts | 68° |
| 2026-05-06 19:53 | 52.17143 | 20.96994 | 338 ft | 4 kts | 62° |
| 2026-05-06 19:54 | 52.17150 | 20.97015 | 335 ft | 0 kts | 60° |